createdAt,value
2019-03-30T00:00:24.873Z,4.68
2019-03-30T00:02:53.287Z,4.68
2019-03-30T00:05:21.675Z,4.72
2019-03-30T00:07:50.081Z,4.72
2019-03-30T00:10:22.303Z,4.70
2019-03-30T00:12:50.708Z,4.63
2019-03-30T00:15:19.112Z,4.67
2019-03-30T00:17:47.511Z,4.61
2019-03-30T00:20:15.921Z,4.47
2019-03-30T00:22:44.310Z,4.38
2019-03-30T00:25:12.710Z,4.44
2019-03-30T00:27:42.614Z,4.35
2019-03-30T00:30:11.371Z,4.26
2019-03-30T00:32:39.765Z,4.20
2019-03-30T00:35:08.742Z,4.33
2019-03-30T00:37:37.164Z,4.36
2019-03-30T00:40:06.704Z,4.23
2019-03-30T00:42:35.169Z,4.35
2019-03-30T00:45:04.381Z,4.32
2019-03-30T00:47:32.771Z,4.27
2019-03-30T00:50:01.197Z,4.19
2019-03-30T00:52:29.620Z,4.16
2019-03-30T00:54:58.021Z,4.19
2019-03-30T00:57:26.435Z,4.14
2019-03-30T00:59:54.839Z,4.04
2019-03-30T01:02:29.846Z,3.98
2019-03-30T01:04:57.522Z,4.01
2019-03-30T01:07:25.909Z,3.97
2019-03-30T01:09:54.386Z,3.88
2019-03-30T01:12:22.789Z,3.84
2019-03-30T01:14:51.172Z,3.83
2019-03-30T01:17:19.662Z,3.83
2019-03-30T01:20:01.924Z,3.77
2019-03-30T01:22:18.195Z,3.78
2019-03-30T01:24:46.600Z,3.77
2019-03-30T01:27:15.006Z,3.72
2019-03-30T01:29:43.393Z,3.71
2019-03-30T01:32:11.779Z,3.69
2019-03-30T01:34:40.232Z,3.70
2019-03-30T01:37:08.622Z,3.65
2019-03-30T01:39:37.547Z,3.66
2019-03-30T01:42:06.910Z,3.65
2019-03-30T01:44:38.139Z,3.63
2019-03-30T01:47:06.530Z,3.61
2019-03-30T01:49:34.931Z,3.50
2019-03-30T01:52:05.845Z,3.49
2019-03-30T01:54:34.240Z,3.56
2019-03-30T01:57:03.730Z,3.61
2019-03-30T01:59:32.148Z,3.61
2019-03-30T02:02:03.047Z,3.54
2019-03-30T02:04:31.425Z,3.53
2019-03-30T02:06:59.830Z,3.52
2019-03-30T02:09:28.224Z,3.48
2019-03-30T02:11:56.631Z,3.50
2019-03-30T02:14:25.022Z,3.53
2019-03-30T02:16:53.425Z,3.54
2019-03-30T02:19:24.521Z,3.52
2019-03-30T02:21:52.923Z,3.46
2019-03-30T02:24:21.322Z,3.46
2019-03-30T02:26:52.230Z,3.41
2019-03-30T02:29:20.616Z,3.38
2019-03-30T02:31:49.065Z,3.31
2019-03-30T02:34:17.503Z,3.13
2019-03-30T02:36:45.905Z,3.03
2019-03-30T02:39:14.350Z,3.05
2019-03-30T02:41:42.781Z,3.14
2019-03-30T02:44:11.181Z,3.25
2019-03-30T02:46:39.589Z,3.21
2019-03-30T02:49:07.988Z,3.32
2019-03-30T02:51:36.416Z,3.33
2019-03-30T02:54:07.573Z,3.27
2019-03-30T02:56:40.805Z,3.06
2019-03-30T02:59:09.247Z,3.03
2019-03-30T03:01:41.392Z,3.03
2019-03-30T03:04:09.789Z,3.07
2019-03-30T03:06:38.176Z,3.16
2019-03-30T03:09:09.184Z,3.25
2019-03-30T03:11:37.921Z,3.19
2019-03-30T03:14:06.501Z,3.12
2019-03-30T03:16:34.911Z,3.03
2019-03-30T03:19:05.130Z,2.96
2019-03-30T03:21:33.491Z,2.92
2019-03-30T03:24:01.884Z,2.89
2019-03-30T03:26:30.377Z,2.88
2019-03-30T03:28:58.796Z,2.87
2019-03-30T03:31:27.554Z,2.83
2019-03-30T03:33:56.154Z,2.81
2019-03-30T03:36:24.502Z,2.79
2019-03-30T03:38:52.931Z,2.83
2019-03-30T03:41:21.348Z,2.84
2019-03-30T03:43:49.737Z,2.71
2019-03-30T03:46:18.141Z,2.54
2019-03-30T03:48:50.437Z,2.57
2019-03-30T03:51:26.160Z,2.68
2019-03-30T03:53:50.263Z,2.73
2019-03-30T03:56:21.974Z,2.53
2019-03-30T03:58:51.512Z,2.65
2019-03-30T04:01:22.750Z,2.67
2019-03-30T04:03:53.225Z,2.48
2019-03-30T04:06:24.781Z,2.50
2019-03-30T04:08:55.951Z,2.52
2019-03-30T04:11:24.429Z,2.60
2019-03-30T04:13:54.692Z,2.62
2019-03-30T04:16:23.405Z,3.08
2019-03-30T04:18:52.914Z,3.48
2019-03-30T04:21:42.393Z,2.96
2019-03-30T04:23:55.573Z,2.60
2019-03-30T04:26:24.116Z,2.47
2019-03-30T04:28:52.522Z,2.45
2019-03-30T04:31:20.943Z,2.21
2019-03-30T04:33:49.383Z,2.20
2019-03-30T04:36:17.803Z,2.29
2019-03-30T04:38:46.198Z,2.40
2019-03-30T04:41:14.600Z,2.37
2019-03-30T04:43:43.042Z,2.36
2019-03-30T04:46:11.445Z,2.33
2019-03-30T04:48:39.878Z,2.30
2019-03-30T04:51:08.304Z,2.32
2019-03-30T04:53:36.728Z,2.45
2019-03-30T04:56:05.129Z,2.39
2019-03-30T04:58:34.551Z,2.28
2019-03-30T05:01:02.946Z,2.33
2019-03-30T05:03:31.360Z,2.38
2019-03-30T05:05:59.756Z,2.40
2019-03-30T05:08:28.188Z,2.34
2019-03-30T05:10:56.585Z,2.47
2019-03-30T05:13:28.713Z,2.53
2019-03-30T05:15:56.372Z,2.52
2019-03-30T05:18:24.751Z,2.71
2019-03-30T05:20:53.138Z,2.65
2019-03-30T05:23:21.557Z,2.59
2019-03-30T05:25:49.983Z,2.52
2019-03-30T05:28:18.383Z,2.53
2019-03-30T05:30:46.766Z,2.61
2019-03-30T05:33:15.189Z,2.68
2019-03-30T05:35:43.605Z,2.54
2019-03-30T05:38:11.997Z,2.68
2019-03-30T05:40:40.407Z,2.64
2019-03-30T05:43:08.817Z,2.69
2019-03-30T05:45:37.209Z,2.71
2019-03-30T05:48:05.609Z,2.88
2019-03-30T05:50:36.657Z,3.01
2019-03-30T05:53:06.163Z,3.25
2019-03-30T05:55:34.784Z,3.68
2019-03-30T05:58:04.251Z,4.19
2019-03-30T06:00:32.632Z,4.41
2019-03-30T06:03:03.580Z,4.47
2019-03-30T06:05:34.224Z,4.59
2019-03-30T06:08:02.703Z,4.78
2019-03-30T06:10:31.185Z,4.93
2019-03-30T06:13:00.038Z,5.04
2019-03-30T06:15:28.424Z,5.26
2019-03-30T06:17:56.840Z,5.61
2019-03-30T06:20:25.248Z,6.02
2019-03-30T06:22:53.689Z,5.85
2019-03-30T06:25:22.219Z,6.29
2019-03-30T06:27:53.098Z,6.68
2019-03-30T06:30:34.151Z,7.01
2019-03-30T06:33:02.559Z,7.47
2019-03-30T06:35:34.066Z,8.03
2019-03-30T06:38:03.574Z,8.71
2019-03-30T06:40:32.182Z,9.01
2019-03-30T06:43:00.547Z,9.39
2019-03-30T06:45:28.940Z,10.09
2019-03-30T06:51:16.101Z,10.66
2019-03-30T07:00:06.487Z,10.66
2019-03-30T07:09:17.941Z,10.66
2019-03-30T07:39:02.616Z,10.66
2019-03-30T07:41:32.046Z,10.66
2019-03-30T07:44:05.743Z,16.28
2019-03-30T07:46:37.312Z,16.28
2019-03-30T07:49:04.942Z,17.67
2019-03-30T07:51:33.772Z,18.65
2019-03-30T07:54:06.604Z,18.64
2019-03-30T07:56:35.001Z,18.74
2019-03-30T07:59:03.436Z,19.20
2019-03-30T08:01:31.897Z,19.35
2019-03-30T08:04:00.309Z,20.20
2019-03-30T08:06:28.769Z,20.20
2019-03-30T08:08:57.158Z,20.61
2019-03-30T08:11:25.644Z,21.40
2019-03-30T08:13:54.065Z,21.03
2019-03-30T08:16:22.482Z,21.85
2019-03-30T08:18:50.907Z,21.51
2019-03-30T08:21:19.329Z,21.21
2019-03-30T08:23:48.806Z,20.81
2019-03-30T08:26:17.191Z,19.03
2019-03-30T08:28:45.650Z,18.98
2019-03-30T08:31:14.171Z,19.07
2019-03-30T08:33:46.921Z,19.54
2019-03-30T08:36:15.330Z,19.25
2019-03-30T08:38:46.152Z,19.72
2019-03-30T08:41:13.887Z,19.37
2019-03-30T08:43:44.873Z,18.76
2019-03-30T08:46:13.272Z,18.34
2019-03-30T08:48:41.706Z,17.91
2019-03-30T08:51:11.202Z,17.55
2019-03-30T08:53:54.765Z,17.56
2019-03-30T08:56:23.512Z,17.20
2019-03-30T08:58:52.360Z,16.78
2019-03-30T09:01:20.779Z,16.60
2019-03-30T09:03:49.161Z,16.82
2019-03-30T09:06:17.574Z,16.71
2019-03-30T09:08:45.972Z,16.50
2019-03-30T09:11:14.364Z,16.64
2019-03-30T09:13:46.528Z,16.34
2019-03-30T09:16:14.975Z,16.56
2019-03-30T09:18:43.445Z,16.58
2019-03-30T09:21:14.358Z,16.48
2019-03-30T09:23:42.783Z,16.40
2019-03-30T09:26:11.172Z,16.56
2019-03-30T09:28:42.051Z,16.64
2019-03-30T09:31:14.831Z,16.75
2019-03-30T09:33:43.255Z,16.74
2019-03-30T09:36:11.689Z,16.75
2019-03-30T09:38:40.114Z,16.77
2019-03-30T09:41:11.222Z,16.88
2019-03-30T09:43:39.630Z,17.07
2019-03-30T09:46:08.044Z,17.19
2019-03-30T09:48:37.524Z,17.08
2019-03-30T09:51:05.940Z,17.07
2019-03-30T09:53:34.339Z,17.07
2019-03-30T09:56:06.620Z,17.24
2019-03-30T09:58:35.027Z,17.42
2019-03-30T10:01:03.421Z,17.61
2019-03-30T10:03:31.823Z,17.56
2019-03-30T10:06:01.252Z,17.83
2019-03-30T10:08:29.638Z,18.04
2019-03-30T10:10:58.044Z,18.18
2019-03-30T10:13:29.414Z,18.13
2019-03-30T10:15:57.836Z,18.32
2019-03-30T10:18:26.224Z,18.42
2019-03-30T10:20:57.404Z,18.68
2019-03-30T10:23:25.808Z,18.69
2019-03-30T10:25:54.222Z,18.71
2019-03-30T10:28:23.071Z,18.64
2019-03-30T10:30:51.470Z,18.15
2019-03-30T10:33:19.959Z,18.29
2019-03-30T10:35:53.727Z,18.19
2019-03-30T10:38:22.133Z,18.09
2019-03-30T10:40:50.545Z,17.96
2019-03-30T10:43:21.457Z,17.94
2019-03-30T10:45:49.853Z,18.03
2019-03-30T10:48:18.266Z,18.26
2019-03-30T10:50:47.458Z,17.99
2019-03-30T10:53:15.866Z,18.20
2019-03-30T10:55:44.589Z,18.47
2019-03-30T10:58:12.970Z,18.79
2019-03-30T11:00:43.019Z,18.85
2019-03-30T11:03:11.417Z,18.92
2019-03-30T11:05:39.962Z,19.12
2019-03-30T11:08:08.350Z,19.26
2019-03-30T11:10:37.905Z,19.20
2019-03-30T11:13:07.274Z,19.56
2019-03-30T11:15:35.672Z,19.43
2019-03-30T11:18:04.245Z,19.67
2019-03-30T11:20:36.136Z,19.83
2019-03-30T11:23:04.535Z,19.69
2019-03-30T11:25:32.950Z,19.67
2019-03-30T11:28:01.390Z,19.51
2019-03-30T11:30:29.795Z,19.63
2019-03-30T11:32:58.307Z,19.44
2019-03-30T11:35:26.732Z,19.61
2019-03-30T11:37:55.205Z,19.53
2019-03-30T11:40:23.601Z,19.49
2019-03-30T11:42:52.008Z,19.47
2019-03-30T11:45:20.407Z,19.14
2019-03-30T11:47:51.278Z,19.32
2019-03-30T11:50:22.448Z,19.46
2019-03-30T11:52:50.870Z,19.60
2019-03-30T11:55:22.263Z,19.47
2019-03-30T11:57:50.353Z,19.33
2019-03-30T12:00:18.885Z,19.63
2019-03-30T12:02:47.301Z,19.69
2019-03-30T12:05:15.724Z,19.82
2019-03-30T12:07:48.111Z,20.05
2019-03-30T12:10:16.490Z,20.36
2019-03-30T12:12:48.374Z,20.37
2019-03-30T12:15:16.848Z,20.24
2019-03-30T12:17:45.312Z,20.33
2019-03-30T12:20:14.001Z,20.27
2019-03-30T12:22:42.563Z,20.12
2019-03-30T12:25:10.963Z,19.89
2019-03-30T12:27:39.379Z,19.45
2019-03-30T12:30:08.225Z,19.74
2019-03-30T12:32:36.630Z,19.66
2019-03-30T12:35:07.200Z,19.70
2019-03-30T12:37:36.076Z,19.78
2019-03-30T12:40:07.283Z,19.78
2019-03-30T12:42:35.690Z,19.78
2019-03-30T12:45:06.220Z,19.60
2019-03-30T12:47:37.526Z,19.73
2019-03-30T12:50:07.078Z,19.71
2019-03-30T12:52:36.408Z,19.64
2019-03-30T12:55:05.258Z,19.54
2019-03-30T12:57:33.665Z,19.54
2019-03-30T13:00:02.146Z,20.09
2019-03-30T13:02:34.402Z,20.09
2019-03-30T13:05:02.829Z,20.09
2019-03-30T13:07:31.269Z,20.59
2019-03-30T13:09:59.654Z,20.55
2019-03-30T13:12:28.084Z,20.68
2019-03-30T13:14:56.465Z,20.68
2019-03-30T13:17:24.885Z,20.61
2019-03-30T13:19:54.277Z,20.53
2019-03-30T13:22:22.712Z,20.13
2019-03-30T13:24:52.138Z,19.93
2019-03-30T13:27:23.151Z,19.63
2019-03-30T13:29:51.648Z,19.55
2019-03-30T13:32:23.919Z,19.38
2019-03-30T13:34:51.563Z,19.35
2019-03-30T13:37:20.366Z,19.33
2019-03-30T13:39:48.767Z,19.32
2019-03-30T13:42:19.106Z,19.23
2019-03-30T13:44:49.455Z,19.02
2019-03-30T13:47:17.860Z,19.03
2019-03-30T13:49:46.518Z,19.28
2019-03-30T13:52:14.938Z,19.42
2019-03-30T13:54:43.357Z,19.67
2019-03-30T13:57:11.758Z,19.88
2019-03-30T13:59:40.159Z,19.87
2019-03-30T14:02:09.641Z,20.00
2019-03-30T14:04:38.058Z,20.00
2019-03-30T14:07:07.394Z,20.14
2019-03-30T14:09:36.867Z,20.04
2019-03-30T14:12:05.269Z,20.05
2019-03-30T14:14:43.336Z,19.96
2019-03-30T14:17:11.710Z,20.18
2019-03-30T14:19:40.098Z,20.08
2019-03-30T14:22:11.025Z,20.08
2019-03-30T14:24:42.187Z,20.08
2019-03-30T14:27:10.580Z,20.08
2019-03-30T14:29:38.984Z,20.10
2019-03-30T14:32:18.022Z,20.10
2019-03-30T14:35:10.363Z,20.10
2019-03-30T14:37:46.188Z,20.10
2019-03-30T14:41:05.247Z,19.11
2019-03-30T14:43:33.647Z,19.11
2019-03-30T14:46:02.040Z,18.84
2019-03-30T14:48:30.471Z,18.76
2019-03-30T14:50:58.881Z,18.78
2019-03-30T14:53:27.329Z,18.73
2019-03-30T14:56:00.435Z,18.57
2019-03-30T14:58:47.344Z,18.57
2019-03-30T15:01:17.402Z,18.57
2019-03-30T15:03:53.485Z,18.60
2019-03-30T15:06:21.894Z,18.60
2019-03-30T15:08:51.349Z,18.76
2019-03-30T15:11:19.747Z,18.75
2019-03-30T15:13:48.153Z,18.55
2019-03-30T15:16:16.559Z,18.63
2019-03-30T15:18:44.946Z,18.72
2019-03-30T15:21:13.378Z,18.51
2019-03-30T15:23:41.775Z,18.42
2019-03-30T15:26:10.176Z,18.38
2019-03-30T15:28:38.615Z,18.25
2019-03-30T15:31:11.097Z,18.42
2019-03-30T15:33:39.494Z,18.42
2019-03-30T15:36:07.934Z,18.24
2019-03-30T15:38:36.325Z,18.14
2019-03-30T15:41:10.159Z,18.13
2019-03-30T15:43:38.948Z,18.13
2019-03-30T15:46:07.465Z,18.13
2019-03-30T15:48:36.900Z,18.10
2019-03-30T15:51:05.248Z,18.12
2019-03-30T15:53:33.670Z,18.08
2019-03-30T15:56:02.072Z,18.01
2019-03-30T15:58:33.091Z,18.00
2019-03-30T16:01:02.905Z,17.89
2019-03-30T16:03:31.308Z,17.94
2019-03-30T16:06:03.194Z,17.93
2019-03-30T16:08:31.685Z,17.88
2019-03-30T16:11:00.072Z,17.64
2019-03-30T16:13:37.488Z,17.67
2019-03-30T16:16:09.419Z,17.67
2019-03-30T16:18:37.777Z,17.36
2019-03-30T16:21:06.173Z,17.39
2019-03-30T16:23:34.608Z,17.38
2019-03-30T16:26:03.038Z,17.27
2019-03-30T16:28:35.188Z,17.14
2019-03-30T16:31:03.618Z,17.08
2019-03-30T16:33:34.092Z,17.00
2019-03-30T16:36:03.424Z,16.96
2019-03-30T16:38:31.808Z,16.88
2019-03-30T16:41:00.357Z,16.82
2019-03-30T16:43:28.778Z,16.69
2019-03-30T16:45:57.187Z,16.59
2019-03-30T16:48:33.927Z,16.52
2019-03-30T16:51:04.891Z,16.35
2019-03-30T16:53:37.040Z,16.35
2019-03-30T16:57:02.536Z,16.27
2019-03-30T17:00:23.041Z,16.27
2019-03-30T17:03:48.023Z,16.27
2019-03-30T17:06:16.416Z,16.27
2019-03-30T17:08:47.573Z,15.71
2019-03-30T17:11:16.940Z,15.71
2019-03-30T17:13:45.331Z,15.54
2019-03-30T17:16:16.575Z,15.38
2019-03-30T17:19:02.889Z,15.38
2019-03-30T17:21:32.295Z,15.20
2019-03-30T17:24:00.701Z,15.20
2019-03-30T17:26:29.148Z,15.06
2019-03-30T17:28:59.663Z,15.01
2019-03-30T17:31:28.078Z,14.95
2019-03-30T17:34:00.090Z,14.97
2019-03-30T17:36:28.496Z,14.98
2019-03-30T17:38:56.955Z,15.03
2019-03-30T17:41:25.418Z,15.03
2019-03-30T17:44:00.616Z,15.09
2019-03-30T17:46:29.041Z,15.09
2019-03-30T17:48:57.468Z,14.83
2019-03-30T17:51:28.369Z,14.75
2019-03-30T17:53:56.792Z,14.75
2019-03-30T17:56:29.852Z,14.75
2019-03-30T18:00:43.105Z,14.75
2019-03-30T18:05:25.061Z,14.75
2019-03-30T18:07:55.067Z,14.75
2019-03-30T18:10:23.403Z,13.78
2019-03-30T18:14:25.218Z,13.68
2019-03-30T18:16:53.662Z,13.68
2019-03-30T18:20:12.833Z,13.44
2019-03-30T18:24:00.423Z,13.44
2019-03-30T18:26:29.620Z,13.44
2019-03-30T18:30:45.858Z,13.26
2019-03-30T18:33:38.116Z,13.26
2019-03-30T18:36:21.264Z,13.26
2019-03-30T18:40:33.654Z,13.26
2019-03-30T18:43:03.792Z,13.26
2019-03-30T18:45:33.496Z,13.09
2019-03-30T18:48:13.473Z,13.09
2019-03-30T18:50:43.424Z,12.89
2019-03-30T18:53:12.890Z,12.86
2019-03-30T18:55:44.565Z,12.78
2019-03-30T18:58:41.786Z,12.74
2019-03-30T19:01:07.055Z,12.74
2019-03-30T19:03:35.560Z,12.62
2019-03-30T19:06:08.805Z,12.64
2019-03-30T19:08:37.204Z,12.64
2019-03-30T19:11:05.627Z,12.63
2019-03-30T19:13:37.897Z,12.58
2019-03-30T19:16:09.465Z,12.54
2019-03-30T19:18:37.900Z,12.59
2019-03-30T19:21:06.359Z,12.45
2019-03-30T19:23:35.929Z,12.30
2019-03-30T19:26:50.765Z,12.16
2019-03-30T19:29:26.898Z,12.16
2019-03-30T19:31:57.701Z,12.16
2019-03-30T19:34:51.109Z,11.72
2019-03-30T19:37:23.105Z,11.72
2019-03-30T19:39:56.083Z,11.59
2019-03-30T19:42:27.123Z,11.59
2019-03-30T19:44:56.610Z,11.59
2019-03-30T19:47:25.027Z,11.29
2019-03-30T19:49:53.650Z,11.23
2019-03-30T19:52:22.110Z,11.13
2019-03-30T19:54:52.931Z,11.04
2019-03-30T19:57:27.452Z,10.99
2019-03-30T19:59:55.470Z,10.93
2019-03-30T20:02:32.149Z,10.77
2019-03-30T20:05:04.095Z,10.70
2019-03-30T20:07:41.358Z,10.67
2019-03-30T20:10:08.400Z,10.67
2019-03-30T20:12:37.723Z,10.53
2019-03-30T20:15:07.943Z,10.43
2019-03-30T20:17:36.383Z,10.41
2019-03-30T20:20:05.854Z,10.31
2019-03-30T20:22:36.966Z,10.19
2019-03-30T20:25:08.732Z,10.17
2019-03-30T20:27:38.190Z,10.08
2019-03-30T20:30:08.767Z,10.00
2019-03-30T20:32:37.360Z,9.85
2019-03-30T20:35:08.412Z,9.79
2019-03-30T20:37:40.272Z,9.77
2019-03-30T20:40:12.070Z,9.71
2019-03-30T20:42:44.596Z,9.62
2019-03-30T20:45:13.748Z,9.55
2019-03-30T20:47:42.106Z,9.59
2019-03-30T20:50:13.665Z,9.38
2019-03-30T20:52:42.203Z,9.39
2019-03-30T20:55:10.851Z,9.28
2019-03-30T20:57:39.276Z,9.29
2019-03-30T21:00:10.476Z,9.30
2019-03-30T21:02:43.862Z,9.29
2019-03-30T21:05:15.445Z,9.14
2019-03-30T21:07:45.062Z,9.08
2019-03-30T21:10:13.834Z,8.97
2019-03-30T21:12:44.740Z,8.93
2019-03-30T21:15:18.012Z,8.95
2019-03-30T21:17:46.409Z,8.90
2019-03-30T21:20:23.078Z,8.80
2019-03-30T21:22:55.041Z,8.73
2019-03-30T21:25:23.547Z,8.69
2019-03-30T21:27:51.884Z,8.71
2019-03-30T21:30:21.049Z,8.61
2019-03-30T21:32:49.443Z,8.46
2019-03-30T21:35:18.785Z,8.43
2019-03-30T21:37:47.178Z,8.45
2019-03-30T21:40:15.592Z,8.41
2019-03-30T21:42:47.691Z,8.31
2019-03-30T21:45:16.097Z,8.22
2019-03-30T21:47:44.490Z,8.21
2019-03-30T21:50:13.236Z,8.22
2019-03-30T21:52:41.699Z,8.12
2019-03-30T21:55:10.320Z,8.15
2019-03-30T21:57:41.116Z,8.11
2019-03-30T22:00:11.448Z,8.03
2019-03-30T22:02:39.972Z,8.02
2019-03-30T22:05:08.505Z,8.02
2019-03-30T22:07:38.655Z,7.93
2019-03-30T22:10:08.895Z,7.84
2019-03-30T22:12:42.499Z,7.82
2019-03-30T22:15:26.217Z,7.79
2019-03-30T22:17:55.651Z,7.79
2019-03-30T22:20:24.874Z,7.79
2019-03-30T22:22:53.265Z,7.68
2019-03-30T22:25:27.797Z,7.69
2019-03-30T22:27:57.134Z,7.69
2019-03-30T22:30:25.620Z,7.60
2019-03-30T22:32:55.431Z,7.54
2019-03-30T22:35:24.933Z,7.54
2019-03-30T22:37:53.381Z,7.56
2019-03-30T22:40:21.785Z,7.53
2019-03-30T22:42:51.167Z,7.47
2019-03-30T22:45:20.754Z,7.38
2019-03-30T22:47:51.587Z,7.36
2019-03-30T22:50:22.493Z,7.38
2019-03-30T22:52:50.884Z,7.33
2019-03-30T22:55:22.780Z,7.34
2019-03-30T22:57:51.201Z,7.29
2019-03-30T23:00:41.449Z,7.26
2019-03-30T23:03:11.169Z,7.17
2019-03-30T23:05:40.053Z,7.11
2019-03-30T23:08:10.969Z,7.10
2019-03-30T23:10:40.282Z,7.12
2019-03-30T23:13:12.994Z,6.97
2019-03-30T23:15:42.473Z,7.05
2019-03-30T23:18:11.378Z,6.96
2019-03-30T23:20:40.745Z,6.93
2019-03-30T23:23:09.153Z,6.85
2019-03-30T23:25:37.584Z,6.79
2019-03-30T23:28:05.985Z,6.86
2019-03-30T23:30:34.394Z,6.87
2019-03-30T23:33:05.349Z,6.82
2019-03-30T23:35:34.643Z,6.90
2019-03-30T23:38:05.655Z,7.00
2019-03-30T23:40:34.046Z,7.03
2019-03-30T23:43:03.431Z,7.09
2019-03-30T23:45:32.793Z,7.10
2019-03-30T23:48:01.481Z,7.11
2019-03-30T23:50:29.949Z,7.06
2019-03-30T23:52:58.337Z,7.15
2019-03-30T23:55:26.736Z,7.20
2019-03-30T23:57:55.145Z,7.21
